createdAt,value
2023-08-14T00:02:02.885Z,3.00
2023-08-14T00:04:30.014Z,3.05
2023-08-14T00:06:57.074Z,3.53
2023-08-14T00:09:24.210Z,3.15
2023-08-14T00:11:51.277Z,3.65
2023-08-14T00:14:18.346Z,3.55
2023-08-14T00:16:45.488Z,3.65
2023-08-14T00:19:12.689Z,3.25
2023-08-14T00:21:39.822Z,3.80
2023-08-14T00:24:07.062Z,3.60
2023-08-14T00:26:34.173Z,3.42
2023-08-14T00:29:01.350Z,3.65
2023-08-14T00:31:28.628Z,3.45
2023-08-14T00:33:55.984Z,3.53
2023-08-14T00:36:23.092Z,3.22
2023-08-14T00:38:50.293Z,3.40
2023-08-14T00:41:17.445Z,3.22
2023-08-14T00:43:44.578Z,3.63
2023-08-14T00:46:12.811Z,3.50
2023-08-14T00:48:39.910Z,3.97
2023-08-14T00:51:07.042Z,3.42
2023-08-14T00:53:34.115Z,3.95
2023-08-14T00:56:01.578Z,3.80
2023-08-14T00:58:28.758Z,3.88
2023-08-14T01:00:55.898Z,3.60
2023-08-14T01:03:23.039Z,4.15
2023-08-14T01:05:50.237Z,3.40
2023-08-14T01:08:17.489Z,3.58
2023-08-14T01:10:50.713Z,3.50
2023-08-14T01:13:21.074Z,3.60
2023-08-14T01:18:17.032Z,3.80
2023-08-14T01:20:44.144Z,4.28
2023-08-14T01:23:23.754Z,3.60
2023-08-14T01:25:51.132Z,3.90
2023-08-14T01:28:18.483Z,3.95
2023-08-14T01:30:45.809Z,4.18
2023-08-14T01:33:12.990Z,3.60
2023-08-14T01:35:40.898Z,3.75
2023-08-14T01:38:26.594Z,4.25
2023-08-14T01:40:58.412Z,3.60
2023-08-14T01:43:29.148Z,4.20
2023-08-14T01:45:56.573Z,3.80
2023-08-14T01:48:24.503Z,3.95
2023-08-14T01:50:52.193Z,4.15
2023-08-14T01:53:19.521Z,4.00
2023-08-14T01:55:46.830Z,3.72
2023-08-14T01:58:13.911Z,3.80
2023-08-14T02:00:41.195Z,3.65
2023-08-14T02:03:08.454Z,3.83
2023-08-14T02:05:35.666Z,3.58
2023-08-14T02:08:02.896Z,4.00
2023-08-14T02:10:30.040Z,3.90
2023-08-14T02:12:57.123Z,3.78
2023-08-14T02:15:24.310Z,4.20
2023-08-14T02:17:51.473Z,3.67
2023-08-14T02:20:18.739Z,3.70
2023-08-14T02:22:45.895Z,3.50
2023-08-14T02:25:13.045Z,4.15
2023-08-14T02:27:40.104Z,4.18
2023-08-14T02:30:07.523Z,4.68
2023-08-14T02:32:34.709Z,4.57
2023-08-14T02:35:01.930Z,5.07
2023-08-14T02:37:29.122Z,4.53
2023-08-14T02:39:56.220Z,4.35
2023-08-14T02:42:23.424Z,4.43
2023-08-14T02:44:51.786Z,4.43
2023-08-14T02:47:19.029Z,4.45
2023-08-14T02:49:46.167Z,4.70
2023-08-14T02:52:13.238Z,4.25
2023-08-14T02:54:40.482Z,4.10
2023-08-14T02:57:07.654Z,4.50
2023-08-14T02:59:36.494Z,4.57
2023-08-14T03:02:03.733Z,4.65
2023-08-14T03:04:34.001Z,4.63
2023-08-14T03:07:01.115Z,4.22
2023-08-14T03:09:28.238Z,4.07
2023-08-14T03:11:55.361Z,4.55
2023-08-14T03:14:22.475Z,4.00
2023-08-14T03:16:49.653Z,4.38
2023-08-14T03:19:16.825Z,4.20
2023-08-14T03:21:44.054Z,4.70
2023-08-14T03:24:11.160Z,4.50
2023-08-14T03:26:38.221Z,4.75
2023-08-14T03:29:05.904Z,4.38
2023-08-14T03:31:33.164Z,4.28
2023-08-14T03:34:00.494Z,4.35
2023-08-14T03:36:27.554Z,4.75
2023-08-14T03:38:54.747Z,4.82
2023-08-14T03:41:21.987Z,4.32
2023-08-14T03:43:49.478Z,4.72
2023-08-14T03:46:16.615Z,4.50
2023-08-14T03:48:43.730Z,4.63
2023-08-14T03:51:11.008Z,3.85
2023-08-14T03:53:38.072Z,4.85
2023-08-14T03:56:05.260Z,4.63
2023-08-14T03:58:32.322Z,4.90
2023-08-14T04:00:59.636Z,4.82
2023-08-14T04:03:26.987Z,4.75
2023-08-14T04:05:57.134Z,4.85
2023-08-14T04:08:24.306Z,4.07
2023-08-14T04:11:00.760Z,4.50
2023-08-14T04:13:27.936Z,4.18
2023-08-14T04:16:00.665Z,4.63
2023-08-14T04:18:28.803Z,4.45
2023-08-14T04:20:56.063Z,5.35
2023-08-14T04:23:26.580Z,4.95
2023-08-14T04:25:54.295Z,4.80
2023-08-14T04:28:21.427Z,8.25
2023-08-14T04:30:49.530Z,7.35
2023-08-14T04:33:16.639Z,5.78
2023-08-14T04:35:43.757Z,4.65
2023-08-14T04:38:11.545Z,4.60
2023-08-14T04:40:38.747Z,4.57
2023-08-14T04:43:05.898Z,4.50
2023-08-14T04:45:32.973Z,4.68
2023-08-14T04:48:00.185Z,5.13
2023-08-14T04:50:27.303Z,4.72
2023-08-14T04:52:54.430Z,4.57
2023-08-14T04:55:24.727Z,4.88
2023-08-14T05:00:19.487Z,4.93
2023-08-14T05:02:46.865Z,4.50
2023-08-14T05:05:14.125Z,4.40
2023-08-14T05:07:41.284Z,4.43
2023-08-14T05:10:08.606Z,4.35
2023-08-14T05:12:35.756Z,4.32
2023-08-14T05:15:02.898Z,4.57
2023-08-14T05:17:30.191Z,4.45
2023-08-14T05:19:57.620Z,4.65
2023-08-14T05:22:24.887Z,4.30
2023-08-14T05:24:52.040Z,4.60
2023-08-14T05:27:19.158Z,4.10
2023-08-14T05:29:48.398Z,3.70
2023-08-14T05:32:15.688Z,4.38
2023-08-14T05:34:43.028Z,4.50
2023-08-14T05:37:10.133Z,4.30
2023-08-14T05:39:37.255Z,4.70
2023-08-14T05:42:04.398Z,4.70
2023-08-14T05:44:31.577Z,4.53
2023-08-14T05:46:58.699Z,3.53
2023-08-14T05:49:26.114Z,3.35
2023-08-14T05:51:53.247Z,3.55
2023-08-14T05:54:20.419Z,3.47
2023-08-14T05:56:47.583Z,3.35
2023-08-14T05:59:14.674Z,3.58
2023-08-14T06:01:41.825Z,3.42
2023-08-14T06:04:09.039Z,3.65
2023-08-14T06:06:36.259Z,3.60
2023-08-14T06:09:03.393Z,3.65
2023-08-14T06:11:30.509Z,3.67
2023-08-14T06:13:57.695Z,3.55
2023-08-14T06:16:24.805Z,3.60
2023-08-14T06:18:51.969Z,3.22
2023-08-14T06:21:19.407Z,3.70
2023-08-14T06:23:46.897Z,4.00
2023-08-14T06:26:14.067Z,3.45
2023-08-14T06:28:41.160Z,3.42
2023-08-14T06:31:08.376Z,3.55
2023-08-14T06:33:38.606Z,3.60
2023-08-14T06:36:06.737Z,3.15
2023-08-14T06:38:33.831Z,3.25
2023-08-14T06:41:00.943Z,2.72
2023-08-14T06:43:28.129Z,2.90
2023-08-14T06:45:55.227Z,2.78
2023-08-14T06:48:22.394Z,2.58
2023-08-14T06:50:49.514Z,2.50
2023-08-14T06:53:16.622Z,2.90
2023-08-14T06:55:47.554Z,2.80
2023-08-14T06:58:14.627Z,2.70
2023-08-14T07:00:41.731Z,2.80
2023-08-14T07:03:08.938Z,2.63
2023-08-14T07:05:36.049Z,2.92
2023-08-14T07:08:03.131Z,2.53
2023-08-14T07:10:30.230Z,2.67
2023-08-14T07:12:57.336Z,2.60
2023-08-14T07:15:24.550Z,2.30
2023-08-14T07:17:51.689Z,2.30
2023-08-14T07:20:18.918Z,2.63
2023-08-14T07:22:46.033Z,2.60
2023-08-14T07:25:14.392Z,2.38
2023-08-14T07:27:41.453Z,2.30
2023-08-14T07:30:08.965Z,2.20
2023-08-14T07:32:36.198Z,2.15
2023-08-14T07:35:04.284Z,2.42
2023-08-14T07:37:31.433Z,2.08
2023-08-14T07:39:58.539Z,2.08
2023-08-14T07:42:25.615Z,2.03
2023-08-14T07:44:52.769Z,2.22
2023-08-14T07:47:20.371Z,2.20
2023-08-14T07:49:47.555Z,2.15
2023-08-14T07:52:14.695Z,2.30
2023-08-14T07:54:41.821Z,2.67
2023-08-14T07:57:08.908Z,2.20
2023-08-14T07:59:35.992Z,1.95
2023-08-14T08:02:03.183Z,2.00
2023-08-14T08:04:39.513Z,2.30
2023-08-14T08:07:07.281Z,1.70
2023-08-14T08:09:34.821Z,1.77
2023-08-14T08:12:02.080Z,2.25
2023-08-14T08:14:29.219Z,2.13
2023-08-14T08:16:56.362Z,1.95
2023-08-14T08:19:23.463Z,1.85
2023-08-14T08:21:50.527Z,1.77
2023-08-14T08:24:17.601Z,1.92
2023-08-14T08:26:44.727Z,1.65
2023-08-14T08:29:11.786Z,2.10
2023-08-14T08:31:38.909Z,1.58
2023-08-14T08:34:06.065Z,1.77
2023-08-14T08:36:33.552Z,1.70
2023-08-14T08:39:00.693Z,1.48
2023-08-14T08:41:37.656Z,1.60
2023-08-14T08:44:08.858Z,1.73
2023-08-14T08:46:37.532Z,1.92
2023-08-14T08:49:05.043Z,1.73
2023-08-14T08:51:32.300Z,1.50
2023-08-14T08:53:59.736Z,1.65
2023-08-14T08:56:27.029Z,1.58
2023-08-14T08:58:54.263Z,1.58
2023-08-14T09:01:21.685Z,1.65
2023-08-14T09:03:49.349Z,1.73
2023-08-14T09:06:16.572Z,1.45
2023-08-14T09:08:43.724Z,1.80
2023-08-14T09:11:11.270Z,1.40
2023-08-14T09:13:38.462Z,1.63
2023-08-14T09:16:05.683Z,1.55
2023-08-14T09:18:32.783Z,1.65
2023-08-14T09:20:59.933Z,1.65
2023-08-14T09:23:27.156Z,1.88
2023-08-14T09:25:54.270Z,1.67
2023-08-14T09:28:21.396Z,1.55
2023-08-14T09:30:48.585Z,1.55
2023-08-14T09:33:15.757Z,1.90
2023-08-14T09:35:42.903Z,1.55
2023-08-14T09:38:10.167Z,1.58
2023-08-14T09:40:37.279Z,1.50
2023-08-14T09:43:04.452Z,1.83
2023-08-14T09:45:35.944Z,1.75
2023-08-14T09:48:06.157Z,1.67
2023-08-14T09:50:33.344Z,1.60
2023-08-14T09:53:01.011Z,1.80
2023-08-14T09:55:28.740Z,1.73
2023-08-14T09:57:56.672Z,1.67
2023-08-14T10:00:24.439Z,2.10
2023-08-14T10:02:51.762Z,1.50
2023-08-14T10:05:19.362Z,1.75
2023-08-14T10:07:46.484Z,1.70
2023-08-14T10:10:14.903Z,1.50
2023-08-14T10:12:45.384Z,1.70
2023-08-14T10:15:13.649Z,1.90
2023-08-14T10:17:43.853Z,1.50
2023-08-14T10:20:11.894Z,1.70
2023-08-14T10:22:39.050Z,1.73
2023-08-14T10:25:07.261Z,1.80
2023-08-14T10:27:34.416Z,1.50
2023-08-14T10:30:01.611Z,1.98
2023-08-14T10:32:29.114Z,1.80
2023-08-14T10:34:57.073Z,1.90
2023-08-14T10:37:30.887Z,2.00
2023-08-14T10:40:17.190Z,2.00
2023-08-14T10:43:02.492Z,1.58
2023-08-14T10:45:30.085Z,2.60
2023-08-14T10:48:01.611Z,2.03
2023-08-14T10:50:30.486Z,2.10
2023-08-14T10:52:57.935Z,2.20
2023-08-14T10:55:25.894Z,2.33
2023-08-14T10:57:53.334Z,2.10
2023-08-14T11:00:21.942Z,2.28
2023-08-14T11:02:52.736Z,1.92
2023-08-14T11:05:22.451Z,2.10
2023-08-14T11:07:58.758Z,2.10
2023-08-14T11:10:26.725Z,2.05
2023-08-14T11:12:54.181Z,2.15
2023-08-14T11:15:21.987Z,2.42
2023-08-14T11:17:49.496Z,2.22
2023-08-14T11:20:16.719Z,2.20
2023-08-14T11:22:46.927Z,2.10
2023-08-14T11:25:17.879Z,1.95
2023-08-14T11:27:51.782Z,1.90
2023-08-14T11:30:25.720Z,2.10
2023-08-14T11:32:53.913Z,1.90
2023-08-14T11:37:53.139Z,2.20
2023-08-14T11:40:20.524Z,2.10
2023-08-14T11:42:47.604Z,2.20
2023-08-14T11:45:14.790Z,2.08
2023-08-14T11:47:48.332Z,2.20
2023-08-14T11:50:16.014Z,2.08
2023-08-14T11:52:43.384Z,1.75
2023-08-14T11:55:10.715Z,2.10
2023-08-14T11:57:37.885Z,2.00
2023-08-14T12:00:11.759Z,1.80
2023-08-14T12:02:42.117Z,1.60
2023-08-14T12:05:09.550Z,2.00
2023-08-14T12:07:36.938Z,1.95
2023-08-14T12:10:10.686Z,1.80
2023-08-14T12:12:44.528Z,1.80
2023-08-14T12:15:23.207Z,1.80
2023-08-14T12:17:51.661Z,1.88
2023-08-14T12:20:18.808Z,2.03
2023-08-14T12:22:55.361Z,1.70
2023-08-14T12:25:25.922Z,2.00
2023-08-14T12:27:53.018Z,1.88
2023-08-14T12:30:20.184Z,1.65
2023-08-14T12:32:47.516Z,1.88
2023-08-14T12:35:14.762Z,1.80
2023-08-14T12:37:41.980Z,1.63
2023-08-14T12:40:10.113Z,1.60
2023-08-14T12:42:37.994Z,1.80
2023-08-14T12:45:06.284Z,1.55
2023-08-14T12:47:33.736Z,1.80
2023-08-14T12:50:01.015Z,1.92
2023-08-14T12:52:29.608Z,1.88
2023-08-14T12:55:05.494Z,1.70
2023-08-14T12:57:33.499Z,1.80
2023-08-14T13:00:00.643Z,1.70
2023-08-14T13:05:00.555Z,2.03
2023-08-14T13:07:30.955Z,3.17
2023-08-14T13:09:58.168Z,1.92
2023-08-14T13:12:25.483Z,1.95
2023-08-14T13:14:52.633Z,1.98
2023-08-14T13:17:19.890Z,2.05
2023-08-14T13:19:47.183Z,1.90
2023-08-14T13:22:17.100Z,1.80
2023-08-14T13:24:44.436Z,1.70
2023-08-14T13:27:11.572Z,1.90
2023-08-14T13:29:39.075Z,1.83
2023-08-14T13:32:06.434Z,1.90
2023-08-14T13:34:33.674Z,1.92
2023-08-14T13:37:00.861Z,1.70
2023-08-14T13:39:28.066Z,2.08
2023-08-14T13:41:55.247Z,1.73
2023-08-14T13:44:22.343Z,1.60
2023-08-14T13:46:49.543Z,1.52
2023-08-14T13:49:16.718Z,1.50
2023-08-14T13:51:46.074Z,1.75
2023-08-14T13:54:13.280Z,1.63
2023-08-14T13:56:40.637Z,2.10
2023-08-14T13:59:07.767Z,1.88
2023-08-14T14:01:34.927Z,1.85
2023-08-14T14:04:02.044Z,1.90
2023-08-14T14:06:29.188Z,1.60
2023-08-14T14:08:56.253Z,1.67
2023-08-14T14:11:23.419Z,1.50
2023-08-14T14:13:50.509Z,2.25
2023-08-14T14:16:22.157Z,1.70
2023-08-14T14:18:49.297Z,1.70
2023-08-14T14:21:16.369Z,1.90
2023-08-14T14:23:43.427Z,2.03
2023-08-14T14:26:10.561Z,2.08
2023-08-14T14:28:37.716Z,2.13
2023-08-14T14:31:04.836Z,2.05
2023-08-14T14:33:31.878Z,2.33
2023-08-14T14:35:58.968Z,2.53
2023-08-14T14:38:26.166Z,2.40
2023-08-14T14:40:53.274Z,2.28
2023-08-14T14:43:20.415Z,2.28
2023-08-14T14:45:47.624Z,2.60
2023-08-14T14:48:14.704Z,2.35
2023-08-14T14:50:41.821Z,2.50
2023-08-14T14:53:08.924Z,2.47
2023-08-14T14:55:36.039Z,2.47
2023-08-14T14:58:03.190Z,2.35
2023-08-14T15:00:30.273Z,2.50
2023-08-14T15:02:57.456Z,2.15
2023-08-14T15:05:28.903Z,2.13
2023-08-14T15:07:56.838Z,2.15
2023-08-14T15:10:23.912Z,2.10
2023-08-14T15:12:51.055Z,2.28
2023-08-14T15:15:18.297Z,2.00
2023-08-14T15:17:45.638Z,2.50
2023-08-14T15:20:16.526Z,2.20
2023-08-14T15:22:46.500Z,2.20
2023-08-14T15:25:13.837Z,2.30
2023-08-14T15:27:40.924Z,2.00
2023-08-14T15:30:08.350Z,2.20
2023-08-14T15:32:36.702Z,2.05
2023-08-14T15:35:04.190Z,2.22
2023-08-14T15:37:31.281Z,2.60
2023-08-14T15:39:58.340Z,2.10
2023-08-14T15:42:25.479Z,2.20
2023-08-14T15:44:55.803Z,2.45
2023-08-14T15:47:22.973Z,2.83
2023-08-14T15:49:50.062Z,2.40
2023-08-14T15:52:17.218Z,2.10
2023-08-14T15:54:53.188Z,2.25
2023-08-14T15:57:20.831Z,2.30
2023-08-14T15:59:48.328Z,2.13
2023-08-14T16:02:15.573Z,2.50
2023-08-14T16:04:42.729Z,2.33
2023-08-14T16:07:09.803Z,2.38
2023-08-14T16:09:36.934Z,3.20
2023-08-14T16:12:04.175Z,2.42
2023-08-14T16:14:31.312Z,2.75
2023-08-14T16:16:58.848Z,2.55
2023-08-14T16:19:25.937Z,2.38
2023-08-14T16:21:53.028Z,2.00
2023-08-14T16:24:20.128Z,2.17
2023-08-14T16:26:47.241Z,2.28
2023-08-14T16:29:14.394Z,2.22
2023-08-14T16:31:41.526Z,2.40
2023-08-14T16:34:08.777Z,1.92
2023-08-14T16:36:35.815Z,2.28
2023-08-14T16:39:03.046Z,2.15
2023-08-14T16:41:30.292Z,2.50
2023-08-14T16:43:57.366Z,2.90
2023-08-14T16:46:24.476Z,2.45
2023-08-14T16:48:51.561Z,2.65
2023-08-14T16:51:18.675Z,2.20
2023-08-14T16:53:45.772Z,2.15
2023-08-14T16:56:13.016Z,2.90
2023-08-14T16:58:40.167Z,2.47
2023-08-14T17:01:07.277Z,2.60
2023-08-14T17:03:34.361Z,2.30
2023-08-14T17:06:05.384Z,2.58
2023-08-14T17:08:33.821Z,2.67
2023-08-14T17:11:04.530Z,2.67
2023-08-14T17:13:31.836Z,2.80
2023-08-14T17:15:59.056Z,2.58
2023-08-14T17:18:26.361Z,2.42
2023-08-14T17:20:53.960Z,2.47
2023-08-14T17:23:21.081Z,2.58
2023-08-14T17:25:57.288Z,2.95
2023-08-14T17:28:25.362Z,3.25
2023-08-14T17:30:53.961Z,2.20
2023-08-14T17:33:21.456Z,2.60
2023-08-14T17:35:48.712Z,2.58
2023-08-14T17:38:16.460Z,2.88
2023-08-14T17:40:43.681Z,2.67
2023-08-14T17:43:10.870Z,2.63
2023-08-14T17:45:44.134Z,2.38
2023-08-14T17:48:11.828Z,2.88
2023-08-14T17:50:39.176Z,2.50
2023-08-14T17:53:06.416Z,2.50
2023-08-14T17:55:33.572Z,2.53
2023-08-14T17:58:00.660Z,2.70
2023-08-14T18:00:27.845Z,2.50
2023-08-14T18:02:55.035Z,2.75
2023-08-14T18:05:22.288Z,2.30
2023-08-14T18:07:49.411Z,2.90
2023-08-14T18:10:16.627Z,2.83
2023-08-14T18:12:43.923Z,2.75
2023-08-14T18:15:11.200Z,2.92
2023-08-14T18:17:38.363Z,2.80
2023-08-14T18:20:06.601Z,2.88
2023-08-14T18:22:33.893Z,3.03
2023-08-14T18:25:01.302Z,2.90
2023-08-14T18:27:28.689Z,2.72
2023-08-14T18:29:55.797Z,2.50
2023-08-14T18:32:22.918Z,3.47
2023-08-14T18:34:50.017Z,4.20
2023-08-14T18:37:17.265Z,2.50
2023-08-14T18:39:44.512Z,3.50
2023-08-14T18:42:11.582Z,3.17
2023-08-14T18:44:38.647Z,3.42
2023-08-14T18:47:05.940Z,3.38
2023-08-14T18:49:33.635Z,3.00
2023-08-14T18:52:00.753Z,3.53
2023-08-14T18:54:27.841Z,3.17
2023-08-14T18:56:54.962Z,3.00
2023-08-14T18:59:23.726Z,3.35
2023-08-14T19:01:51.392Z,2.97
2023-08-14T19:04:25.779Z,6.78
2023-08-14T19:07:00.369Z,3.80
2023-08-14T19:09:27.530Z,4.00
2023-08-14T19:11:54.629Z,4.28
2023-08-14T19:14:21.836Z,4.22
2023-08-14T19:16:48.959Z,3.58
2023-08-14T19:19:16.038Z,3.58
2023-08-14T19:21:43.111Z,13.98
2023-08-14T19:24:10.298Z,4.68
2023-08-14T19:26:37.424Z,4.25
2023-08-14T19:29:04.711Z,4.70
2023-08-14T19:31:31.957Z,4.78
2023-08-14T19:34:02.624Z,3.75
2023-08-14T19:36:29.995Z,4.28
2023-08-14T19:38:57.186Z,7.88
2023-08-14T19:41:24.339Z,5.50
2023-08-14T19:43:51.503Z,4.50
2023-08-14T19:46:18.675Z,4.25
2023-08-14T19:48:45.908Z,3.63
2023-08-14T19:51:13.074Z,3.83
2023-08-14T19:53:40.170Z,4.40
2023-08-14T19:56:07.640Z,4.55
2023-08-14T19:58:34.706Z,3.92
2023-08-14T20:01:02.645Z,3.92
2023-08-14T20:03:31.171Z,3.92
2023-08-14T20:05:58.407Z,3.97
2023-08-14T20:08:26.359Z,4.10
2023-08-14T20:10:53.515Z,4.00
2023-08-14T20:13:20.630Z,4.10
2023-08-14T20:15:47.877Z,3.90
2023-08-14T20:18:15.195Z,4.07
2023-08-14T20:20:42.521Z,4.75
2023-08-14T20:23:09.590Z,5.05
2023-08-14T20:25:38.000Z,4.72
2023-08-14T20:28:05.684Z,5.38
2023-08-14T20:30:34.286Z,4.20
2023-08-14T20:33:01.385Z,4.32
2023-08-14T20:35:28.805Z,4.20
2023-08-14T20:37:55.872Z,5.15
2023-08-14T20:40:23.384Z,5.03
2023-08-14T20:42:50.422Z,5.07
2023-08-14T20:45:20.034Z,5.07
2023-08-14T20:47:47.205Z,4.97
2023-08-14T20:50:15.357Z,5.50
2023-08-14T20:52:42.460Z,5.47
2023-08-14T20:55:09.767Z,4.82
2023-08-14T20:57:36.940Z,4.63
2023-08-14T21:00:04.432Z,4.57
2023-08-14T21:02:31.645Z,4.72
2023-08-14T21:04:58.781Z,5.47
2023-08-14T21:07:25.838Z,5.38
2023-08-14T21:09:52.955Z,5.22
2023-08-14T21:12:20.065Z,5.85
2023-08-14T21:14:47.173Z,4.95
2023-08-14T21:17:14.268Z,5.78
2023-08-14T21:19:41.380Z,5.97
2023-08-14T21:22:08.523Z,5.38
2023-08-14T21:24:35.591Z,5.63
2023-08-14T21:27:02.792Z,5.40
2023-08-14T21:29:29.841Z,5.80
2023-08-14T21:31:57.035Z,6.18
2023-08-14T21:34:24.159Z,6.25
2023-08-14T21:36:51.267Z,5.88
2023-08-14T21:39:18.588Z,6.13
2023-08-14T21:41:45.652Z,6.35
2023-08-14T21:44:12.750Z,5.65
2023-08-14T21:46:39.884Z,6.18
2023-08-14T21:49:07.016Z,6.15
2023-08-14T21:51:34.140Z,5.88
2023-08-14T21:54:01.272Z,5.82
2023-08-14T21:56:28.369Z,6.50
2023-08-14T21:58:55.483Z,6.45
2023-08-14T22:01:22.618Z,6.20
2023-08-14T22:03:49.743Z,6.10
2023-08-14T22:06:16.837Z,5.93
2023-08-14T22:08:43.969Z,5.63
2023-08-14T22:11:11.071Z,6.13
2023-08-14T22:13:38.233Z,5.10
2023-08-14T22:16:05.383Z,5.22
2023-08-14T22:18:32.474Z,5.25
2023-08-14T22:20:59.532Z,5.43
2023-08-14T22:23:28.724Z,5.60
2023-08-14T22:25:55.814Z,5.88
2023-08-14T22:28:22.862Z,5.93
2023-08-14T22:30:49.961Z,6.20
2023-08-14T22:33:17.075Z,6.35
2023-08-14T22:35:52.520Z,6.60
2023-08-14T22:38:19.624Z,7.13
2023-08-14T22:40:46.759Z,6.70
2023-08-14T22:43:15.561Z,7.25
2023-08-14T22:45:42.818Z,7.47
2023-08-14T22:48:09.947Z,6.65
2023-08-14T22:50:37.134Z,6.35
2023-08-14T22:53:04.355Z,7.15
2023-08-14T22:55:31.548Z,6.32
2023-08-14T22:57:59.567Z,6.00
2023-08-14T23:00:27.172Z,5.80
2023-08-14T23:02:57.394Z,6.70
2023-08-14T23:07:51.921Z,5.85
2023-08-14T23:10:19.076Z,5.63
2023-08-14T23:12:46.225Z,6.13
2023-08-14T23:15:13.752Z,6.03
2023-08-14T23:17:41.006Z,7.10
2023-08-14T23:20:08.565Z,7.47
2023-08-14T23:22:35.733Z,7.07
2023-08-14T23:25:02.934Z,6.93
2023-08-14T23:27:30.036Z,7.40
2023-08-14T23:29:57.188Z,8.38
2023-08-14T23:32:24.302Z,8.23
2023-08-14T23:34:53.197Z,7.97
2023-08-14T23:37:20.574Z,6.88
2023-08-14T23:39:47.900Z,7.13
2023-08-14T23:42:14.980Z,7.15
2023-08-14T23:44:42.164Z,7.65
2023-08-14T23:47:09.439Z,7.10
2023-08-14T23:49:36.499Z,7.50
2023-08-14T23:52:04.002Z,7.18
2023-08-14T23:54:31.703Z,7.45
2023-08-14T23:56:58.888Z,6.75
2023-08-14T23:59:26.084Z,7.78
